PWSweather.com
Personal Weather Stations
Station Observations
IPODRAVI2
Croatia, Trnovec BartoloveckiHR

CroatiaTrnovec BartoloveckiHR

Lat: 46.2947, Lon: 16.3989

Elevation: 535

Station Type: Davis Vantage Pro2 plus

http://www.pljusak.com/trnovec1/wx.html

High Low Average
Temperature 61.9°F16.6°F 33.3°F0.7°F 49.4°F9.7°F
Dew Point 39.8°F4.3°F 29.5°F-1.4°F 35.5°F1.9°F
Winds 8.3 mph SW13.4 mph SW Calm Calm 3.5 mph 5.6 mph
Wind Gusts 13.0 mph20.9 mph -- 5.8 mph9.3 mph
Humidity 86% 40% 61%
Pressure 30.01 in1016.30 in 29.64 in1003.70 in -
Precipitation 0.00 in0.00 in - -
Hour Temp Dew Point Humidity Winds Wind Gusts Pressure Precip Precip Rate Daily Precip Total
12:00 AM 37.6°F3.1°C 31.4°F-0.3°C 78% 1.1 mph NNE1.8 kmh NNE 2.0 mph3.2 kmh 30.01 in1016.3 mb - 0.00 in0.0 mm 0.00 in0.0 mm
12:10 AM 37.6°F3.1°C 31.3°F-0.4°C 78% 1.5 mph NNE2.4 kmh NNE 4.0 mph6.4 kmh 30.01 in1016.3 mb - 0.00 in0.0 mm 0.00 in0.0 mm
12:20 AM 37.3°F2.9°C 31.1°F-0.5°C 78% 1.7 mph NNE2.7 kmh NNE 3.0 mph4.8 kmh 30.01 in1016.3 mb - 0.00 in0.0 mm 0.00 in0.0 mm
12:30 AM 37.0°F2.8°C 31.1°F-0.5°C 79% 0.9 mph NNE1.4 kmh NNE 2.0 mph3.2 kmh 30.01 in1016.3 mb - 0.00 in0.0 mm 0.00 in0.0 mm
12:40 AM 36.8°F2.7°C 31.2°F-0.4°C 80% 1.4 mph N2.3 kmh N 2.0 mph3.2 kmh 30.01 in1016.3 mb - 0.00 in0.0 mm 0.00 in0.0 mm
12:50 AM 36.8°F2.7°C 31.2°F-0.4°C 80% 2.0 mph N3.2 kmh N 4.0 mph6.4 kmh 30.01 in1016.3 mb - 0.00 in0.0 mm 0.00 in0.0 mm
01:00 AM 36.6°F2.6°C 31.0°F-0.6°C 80% 1.3 mph N2.1 kmh N 2.0 mph3.2 kmh 30.01 in1016.3 mb - 0.00 in0.0 mm 0.00 in0.0 mm
01:10 AM 36.4°F2.4°C 31.1°F-0.5°C 81% 2.1 mph N3.4 kmh N 3.0 mph4.8 kmh 30.01 in1016.3 mb - 0.00 in0.0 mm 0.00 in0.0 mm
01:20 AM 36.2°F2.3°C 30.9°F-0.6°C 81% 2.4 mph NNW3.9 kmh NNW 4.0 mph6.4 kmh 30.01 in1016.3 mb - 0.00 in0.0 mm 0.00 in0.0 mm
01:30 AM 36.1°F2.3°C 31.1°F-0.5°C 82% 3.1 mph NW5.0 kmh NW 5.0 mph8.0 kmh 30.01 in1016.3 mb - 0.00 in0.0 mm 0.00 in0.0 mm
01:40 AM 36.1°F2.3°C 30.8°F-0.7°C 81% 1.3 mph NW2.1 kmh NW 3.0 mph4.8 kmh 30.00 in1015.9 mb - 0.00 in0.0 mm 0.00 in0.0 mm
01:50 AM 35.8°F2.1°C 30.8°F-0.7°C 82% 1.7 mph NW2.7 kmh NW 3.0 mph4.8 kmh 30.00 in1015.9 mb - 0.00 in0.0 mm 0.00 in0.0 mm
02:10 AM 35.5°F1.9°C 30.5°F-0.8°C 82% 0.5 mph NW0.8 kmh NW 2.0 mph3.2 kmh 30.00 in1015.9 mb - 0.00 in0.0 mm 0.00 in0.0 mm
02:20 AM 35.3°F1.8°C 30.4°F-0.9°C 82% 1.2 mph NW1.9 kmh NW 2.0 mph3.2 kmh 30.00 in1015.9 mb - 0.00 in0.0 mm 0.00 in0.0 mm
02:30 AM 35.2°F1.8°C 30.6°F-0.8°C 83% Calm Calm -- 30.00 in1015.9 mb - 0.00 in0.0 mm 0.00 in0.0 mm
02:40 AM 35.0°F1.7°C 30.4°F-0.9°C 83% Calm Calm -- 30.00 in1015.9 mb - 0.00 in0.0 mm 0.00 in0.0 mm
02:50 AM 34.8°F1.6°C 30.2°F-1.0°C 83% Calm Calm -- 29.99 in1015.6 mb - 0.00 in0.0 mm 0.00 in0.0 mm
03:00 AM 34.5°F1.4°C 30.2°F-1.0°C 84% 0.1 mph NW0.2 kmh NW 1.0 mph1.6 kmh 29.99 in1015.6 mb - 0.00 in0.0 mm 0.00 in0.0 mm
03:10 AM 34.2°F1.2°C 29.9°F-1.2°C 84% Calm Calm -- 29.99 in1015.6 mb - 0.00 in0.0 mm 0.00 in0.0 mm
03:20 AM 34.0°F1.1°C 29.7°F-1.3°C 84% Calm Calm -- 29.98 in1015.2 mb - 0.00 in0.0 mm 0.00 in0.0 mm
03:30 AM 33.8°F1.0°C 29.8°F-1.2°C 85% Calm Calm -- 29.98 in1015.2 mb - 0.00 in0.0 mm 0.00 in0.0 mm
03:40 AM 33.7°F0.9°C 29.7°F-1.3°C 85% Calm Calm 1.0 mph1.6 kmh 29.98 in1015.2 mb - 0.00 in0.0 mm 0.00 in0.0 mm
03:50 AM 33.6°F0.9°C 29.6°F-1.3°C 85% 1.9 mph NW3.1 kmh NW 2.0 mph3.2 kmh 29.98 in1015.2 mb - 0.00 in0.0 mm 0.00 in0.0 mm
04:00 AM 33.6°F0.9°C 29.6°F-1.3°C 85% 1.3 mph NW2.1 kmh NW 2.0 mph3.2 kmh 29.98 in1015.2 mb - 0.00 in0.0 mm 0.00 in0.0 mm
04:10 AM 33.5°F0.8°C 29.5°F-1.4°C 85% 0.4 mph NW0.6 kmh NW -- 29.98 in1015.2 mb - 0.00 in0.0 mm 0.00 in0.0 mm
04:30 AM 33.3°F0.7°C 29.6°F-1.3°C 86% 0.2 mph NW0.3 kmh NW 1.0 mph1.6 kmh 29.98 in1015.2 mb - 0.00 in0.0 mm 0.00 in0.0 mm
04:40 AM 33.4°F0.8°C 29.7°F-1.3°C 86% 0.2 mph NW0.3 kmh NW 1.0 mph1.6 kmh 29.97 in1014.9 mb - 0.00 in0.0 mm 0.00 in0.0 mm
04:50 AM 33.5°F0.8°C 29.8°F-1.2°C 86% Calm Calm 1.0 mph1.6 kmh 29.97 in1014.9 mb - 0.00 in0.0 mm 0.00 in0.0 mm
05:00 AM 33.6°F0.9°C 29.9°F-1.2°C 86% Calm Calm -- 29.97 in1014.9 mb - 0.00 in0.0 mm 0.00 in0.0 mm
05:10 AM 33.7°F0.9°C 30.0°F-1.1°C 86% Calm Calm 1.0 mph1.6 kmh 29.98 in1015.2 mb - 0.00 in0.0 mm 0.00 in0.0 mm
05:20 AM 33.8°F1.0°C 30.1°F-1.1°C 86% 0.3 mph NW0.5 kmh NW 1.0 mph1.6 kmh 29.97 in1014.9 mb - 0.00 in0.0 mm 0.00 in0.0 mm
05:30 AM 34.0°F1.1°C 30.3°F-0.9°C 86% 0.7 mph NW1.1 kmh NW 1.0 mph1.6 kmh 29.97 in1014.9 mb - 0.00 in0.0 mm 0.00 in0.0 mm
05:40 AM 34.1°F1.2°C 30.4°F-0.9°C 86% 0.1 mph NW0.2 kmh NW 1.0 mph1.6 kmh 29.98 in1015.2 mb - 0.00 in0.0 mm 0.00 in0.0 mm
05:50 AM 34.4°F1.3°C 30.6°F-0.8°C 86% 0.9 mph NW1.4 kmh NW 2.0 mph3.2 kmh 29.97 in1014.9 mb - 0.00 in0.0 mm 0.00 in0.0 mm
06:00 AM 35.1°F1.7°C 31.1°F-0.5°C 85% 0.2 mph NW0.3 kmh NW -- 29.97 in1014.9 mb - 0.00 in0.0 mm 0.00 in0.0 mm
06:10 AM 35.6°F2.0°C 31.2°F-0.4°C 84% 0.3 mph NW0.5 kmh NW 2.0 mph3.2 kmh 29.97 in1014.9 mb - 0.00 in0.0 mm 0.00 in0.0 mm
06:20 AM 35.8°F2.1°C 31.4°F-0.3°C 84% 2.6 mph NW4.2 kmh NW 3.0 mph4.8 kmh 29.97 in1014.9 mb - 0.00 in0.0 mm 0.00 in0.0 mm
06:30 AM 35.7°F2.1°C 31.7°F-0.2°C 85% 2.7 mph NW4.3 kmh NW 3.0 mph4.8 kmh 29.97 in1014.9 mb - 0.00 in0.0 mm 0.00 in0.0 mm
06:40 AM 35.8°F2.1°C 31.7°F-0.2°C 85% 0.9 mph NW1.4 kmh NW 2.0 mph3.2 kmh 29.96 in1014.6 mb - 0.00 in0.0 mm 0.00 in0.0 mm
06:50 AM 36.0°F2.2°C 31.9°F-0.1°C 85% 2.2 mph NW3.5 kmh NW 3.0 mph4.8 kmh 29.97 in1014.9 mb - 0.00 in0.0 mm 0.00 in0.0 mm
07:00 AM 36.2°F2.3°C 32.1°F0.1°C 85% 0.1 mph NW0.2 kmh NW 1.0 mph1.6 kmh 29.97 in1014.9 mb - 0.00 in0.0 mm 0.00 in0.0 mm
07:11 AM 36.7°F2.6°C 32.3°F0.2°C 84% Calm Calm -- 29.97 in1014.9 mb - 0.00 in0.0 mm 0.00 in0.0 mm
07:20 AM 37.5°F3.1°C 33.1°F0.6°C 84% 0.3 mph NW0.5 kmh NW 1.0 mph1.6 kmh 29.97 in1014.9 mb - 0.00 in0.0 mm 0.00 in0.0 mm
07:30 AM 38.3°F3.5°C 33.9°F1.1°C 84% Calm Calm -- 29.97 in1014.9 mb - 0.00 in0.0 mm 0.00 in0.0 mm
07:40 AM 39.4°F4.1°C 34.3°F1.3°C 82% 0.3 mph NW0.5 kmh NW 1.0 mph1.6 kmh 29.97 in1014.9 mb - 0.00 in0.0 mm 0.00 in0.0 mm
07:50 AM 40.4°F4.7°C 34.4°F1.3°C 79% 1.7 mph NW2.7 kmh NW 3.0 mph4.8 kmh 29.96 in1014.6 mb - 0.00 in0.0 mm 0.00 in0.0 mm
08:00 AM 41.1°F5.1°C 34.4°F1.3°C 77% 0.1 mph NW0.2 kmh NW 1.0 mph1.6 kmh 29.96 in1014.6 mb - 0.00 in0.0 mm 0.00 in0.0 mm
08:10 AM 41.6°F5.3°C 34.9°F1.6°C 77% Calm Calm -- 29.96 in1014.6 mb - 0.00 in0.0 mm 0.00 in0.0 mm
08:20 AM 42.4°F5.8°C 35.0°F1.7°C 75% 0.1 mph NW0.2 kmh NW 1.0 mph1.6 kmh 29.96 in1014.6 mb - 0.00 in0.0 mm 0.00 in0.0 mm
08:30 AM 43.3°F6.3°C 35.9°F2.2°C 75% 0.1 mph NW0.2 kmh NW -- 29.96 in1014.6 mb - 0.00 in0.0 mm 0.00 in0.0 mm
08:40 AM 44.4°F6.9°C 35.9°F2.2°C 72% 0.1 mph NW0.2 kmh NW -- 29.96 in1014.6 mb - 0.00 in0.0 mm 0.00 in0.0 mm
08:50 AM 45.2°F7.3°C 36.3°F2.4°C 71% 1.8 mph NW2.9 kmh NW 2.0 mph3.2 kmh 29.95 in1014.2 mb - 0.00 in0.0 mm 0.00 in0.0 mm
09:00 AM 46.2°F7.9°C 36.9°F2.7°C 70% 0.3 mph NW0.5 kmh NW 2.0 mph3.2 kmh 29.95 in1014.2 mb - 0.00 in0.0 mm 0.00 in0.0 mm
09:10 AM 47.0°F8.3°C 37.3°F2.9°C 69% 0.3 mph NW0.5 kmh NW 4.0 mph6.4 kmh 29.95 in1014.2 mb - 0.00 in0.0 mm 0.00 in0.0 mm
09:20 AM 47.9°F8.8°C 35.9°F2.2°C 63% 1.1 mph WSW1.8 kmh WSW 2.0 mph3.2 kmh 29.95 in1014.2 mb - 0.00 in0.0 mm 0.00 in0.0 mm
09:30 AM 48.7°F9.3°C 35.4°F1.9°C 60% 5.5 mph SSW8.9 kmh SSW 9.0 mph14.5 kmh 29.95 in1014.2 mb - 0.00 in0.0 mm 0.00 in0.0 mm
09:40 AM 49.4°F9.7°C 35.7°F2.1°C 59% 4.1 mph WSW6.6 kmh WSW 5.0 mph8.0 kmh 29.94 in1013.9 mb - 0.00 in0.0 mm 0.00 in0.0 mm
09:50 AM 50.2°F10.1°C 35.1°F1.7°C 56% 3.2 mph WSW5.1 kmh WSW 7.0 mph11.3 kmh 29.94 in1013.9 mb - 0.00 in0.0 mm 0.00 in0.0 mm
10:00 AM 51.2°F10.7°C 35.6°F2.0°C 55% 2.3 mph SW3.7 kmh SW 10.0 mph16.1 kmh 29.94 in1013.9 mb - 0.00 in0.0 mm 0.00 in0.0 mm
10:10 AM 52.2°F11.2°C 35.6°F2.0°C 53% 5.1 mph WSW8.2 kmh WSW 9.0 mph14.5 kmh 29.93 in1013.5 mb - 0.00 in0.0 mm 0.00 in0.0 mm
10:30 AM 53.0°F11.7°C 34.8°F1.6°C 50% 7.7 mph SW12.4 kmh SW 9.0 mph14.5 kmh 29.92 in1013.2 mb - 0.00 in0.0 mm 0.00 in0.0 mm
10:40 AM 54.0°F12.2°C 35.7°F2.1°C 50% 6.3 mph SW10.1 kmh SW 9.0 mph14.5 kmh 29.91 in1012.9 mb - 0.00 in0.0 mm 0.00 in0.0 mm
10:50 AM 55.2°F12.9°C 35.3°F1.8°C 47% 2.9 mph WSW4.7 kmh WSW 9.0 mph14.5 kmh 29.91 in1012.9 mb - 0.00 in0.0 mm 0.00 in0.0 mm
11:01 AM 55.4°F13.0°C 35.5°F1.9°C 47% 6.8 mph WSW10.9 kmh WSW 9.0 mph14.5 kmh 29.91 in1012.9 mb - 0.00 in0.0 mm 0.00 in0.0 mm
11:10 AM 56.1°F13.4°C 35.0°F1.7°C 45% 6.7 mph SW10.8 kmh SW 10.0 mph16.1 kmh 29.90 in1012.5 mb - 0.00 in0.0 mm 0.00 in0.0 mm
11:20 AM 56.5°F13.6°C 35.4°F1.9°C 45% 3.8 mph W6.1 kmh W 9.0 mph14.5 kmh 29.89 in1012.2 mb - 0.00 in0.0 mm 0.00 in0.0 mm
11:31 AM 56.4°F13.6°C 35.9°F2.2°C 46% 5.0 mph S8.0 kmh S 10.0 mph16.1 kmh 29.88 in1011.9 mb - 0.00 in0.0 mm 0.00 in0.0 mm
11:40 AM 57.4°F14.1°C 36.2°F2.3°C 45% 8.2 mph WSW13.2 kmh WSW 11.0 mph17.7 kmh 29.88 in1011.9 mb - 0.00 in0.0 mm 0.00 in0.0 mm
11:50 AM 58.4°F14.7°C 36.5°F2.5°C 44% 5.8 mph W9.3 kmh W 9.0 mph14.5 kmh 29.88 in1011.9 mb - 0.00 in0.0 mm 0.00 in0.0 mm
12:01 PM 58.3°F14.6°C 36.4°F2.4°C 44% 6.5 mph SW10.5 kmh SW 9.0 mph14.5 kmh 29.87 in1011.5 mb - 0.00 in0.0 mm 0.00 in0.0 mm
12:10 PM 59.0°F15.0°C 37.1°F2.8°C 44% 5.5 mph W8.9 kmh W 8.0 mph12.9 kmh 29.86 in1011.2 mb - 0.00 in0.0 mm 0.00 in0.0 mm
12:20 PM 59.6°F15.3°C 36.4°F2.4°C 42% 7.9 mph S12.7 kmh S 10.0 mph16.1 kmh 29.86 in1011.2 mb - 0.00 in0.0 mm 0.00 in0.0 mm
12:30 PM 59.9°F15.5°C 37.9°F3.3°C 44% 6.4 mph WSW10.3 kmh WSW 8.0 mph12.9 kmh 29.85 in1010.8 mb - 0.00 in0.0 mm 0.00 in0.0 mm
12:40 PM 60.6°F15.9°C 38.6°F3.7°C 44% 3.9 mph SW6.3 kmh SW 11.0 mph17.7 kmh 29.85 in1010.8 mb - 0.00 in0.0 mm 0.00 in0.0 mm
12:50 PM 60.5°F15.8°C 38.4°F3.6°C 44% 6.6 mph SW10.6 kmh SW 10.0 mph16.1 kmh 29.84 in1010.5 mb - 0.00 in0.0 mm 0.00 in0.0 mm
01:00 PM 60.3°F15.7°C 38.9°F3.8°C 45% 7.0 mph S11.3 kmh S 13.0 mph20.9 kmh 29.84 in1010.5 mb - 0.00 in0.0 mm 0.00 in0.0 mm
01:10 PM 60.6°F15.9°C 38.6°F3.7°C 44% 8.2 mph SSW13.2 kmh SSW 11.0 mph17.7 kmh 29.83 in1010.2 mb - 0.00 in0.0 mm 0.00 in0.0 mm
01:20 PM 60.7°F15.9°C 38.6°F3.7°C 44% 7.8 mph SSW12.6 kmh SSW 12.0 mph19.3 kmh 29.83 in1010.2 mb - 0.00 in0.0 mm 0.00 in0.0 mm
01:30 PM 61.3°F16.3°C 38.6°F3.7°C 43% 7.3 mph S11.7 kmh S 10.0 mph16.1 kmh 29.83 in1010.2 mb - 0.00 in0.0 mm 0.00 in0.0 mm
01:40 PM 61.8°F16.6°C 39.0°F3.9°C 43% 6.6 mph SSW10.6 kmh SSW 12.0 mph19.3 kmh 29.82 in1009.8 mb - 0.00 in0.0 mm 0.00 in0.0 mm
01:50 PM 61.5°F16.4°C 37.6°F3.1°C 41% 5.6 mph SSE9.0 kmh SSE 10.0 mph16.1 kmh 29.81 in1009.5 mb - 0.00 in0.0 mm 0.00 in0.0 mm
02:00 PM 61.8°F16.6°C 39.6°F4.2°C 44% 5.0 mph SSW8.0 kmh SSW 9.0 mph14.5 kmh 29.81 in1009.5 mb - 0.00 in0.0 mm 0.00 in0.0 mm
02:10 PM 61.5°F16.4°C 39.4°F4.1°C 44% 3.9 mph SW6.3 kmh SW 9.0 mph14.5 kmh 29.80 in1009.1 mb - 0.00 in0.0 mm 0.00 in0.0 mm
02:20 PM 61.5°F16.4°C 37.6°F3.1°C 41% 5.7 mph S9.2 kmh S 7.0 mph11.3 kmh 29.80 in1009.1 mb - 0.00 in0.0 mm 0.00 in0.0 mm
02:30 PM 61.7°F16.5°C 38.3°F3.5°C 42% 5.7 mph SW9.2 kmh SW 11.0 mph17.7 kmh 29.80 in1009.1 mb - 0.00 in0.0 mm 0.00 in0.0 mm
02:40 PM 61.8°F16.6°C 37.2°F2.9°C 40% 6.0 mph S9.7 kmh S 7.0 mph11.3 kmh 29.79 in1008.8 mb - 0.00 in0.0 mm 0.00 in0.0 mm
02:50 PM 61.9°F16.6°C 37.9°F3.3°C 41% 4.6 mph SW7.4 kmh SW 7.0 mph11.3 kmh 29.78 in1008.5 mb - 0.00 in0.0 mm 0.00 in0.0 mm
03:00 PM 61.6°F16.4°C 37.6°F3.1°C 41% 6.8 mph S10.9 kmh S 7.0 mph11.3 kmh 29.78 in1008.5 mb - 0.00 in0.0 mm 0.00 in0.0 mm
03:10 PM 61.3°F16.3°C 38.6°F3.7°C 43% 7.3 mph S11.7 kmh S 11.0 mph17.7 kmh 29.77 in1008.1 mb - 0.00 in0.0 mm 0.00 in0.0 mm
03:20 PM 61.5°F16.4°C 38.2°F3.4°C 42% 7.4 mph SW11.9 kmh SW 10.0 mph16.1 kmh 29.77 in1008.1 mb - 0.00 in0.0 mm 0.00 in0.0 mm
03:31 PM 61.4°F16.3°C 38.1°F3.4°C 42% 7.7 mph SSW12.4 kmh SSW 10.0 mph16.1 kmh 29.77 in1008.1 mb - 0.00 in0.0 mm 0.00 in0.0 mm
03:40 PM 60.9°F16.1°C 37.7°F3.2°C 42% 6.1 mph SW9.8 kmh SW 10.0 mph16.1 kmh 29.76 in1007.8 mb - 0.00 in0.0 mm 0.00 in0.0 mm
03:50 PM 60.6°F15.9°C 38.6°F3.7°C 44% 5.6 mph SW9.0 kmh SW 9.0 mph14.5 kmh 29.76 in1007.8 mb - 0.00 in0.0 mm 0.00 in0.0 mm
04:00 PM 61.3°F16.3°C 38.6°F3.7°C 43% 7.1 mph S11.4 kmh S 10.0 mph16.1 kmh 29.76 in1007.8 mb - 0.00 in0.0 mm 0.00 in0.0 mm
04:10 PM 61.6°F16.4°C 37.7°F3.2°C 41% 6.0 mph SW9.7 kmh SW 9.0 mph14.5 kmh 29.76 in1007.8 mb - 0.00 in0.0 mm 0.00 in0.0 mm
04:20 PM 61.7°F16.5°C 38.4°F3.6°C 42% 6.1 mph S9.8 kmh S 11.0 mph17.7 kmh 29.76 in1007.8 mb - 0.00 in0.0 mm 0.00 in0.0 mm
04:30 PM 61.4°F16.3°C 38.1°F3.4°C 42% 6.1 mph SSW9.8 kmh SSW 10.0 mph16.1 kmh 29.75 in1007.5 mb - 0.00 in0.0 mm 0.00 in0.0 mm
04:40 PM 61.6°F16.4°C 37.7°F3.2°C 41% 6.6 mph SW10.6 kmh SW 12.0 mph19.3 kmh 29.75 in1007.5 mb - 0.00 in0.0 mm 0.00 in0.0 mm
04:50 PM 61.0°F16.1°C 37.7°F3.2°C 42% 6.4 mph S10.3 kmh S 8.0 mph12.9 kmh 29.74 in1007.1 mb - 0.00 in0.0 mm 0.00 in0.0 mm
05:00 PM 60.6°F15.9°C 38.0°F3.3°C 43% 6.8 mph SSW10.9 kmh SSW 10.0 mph16.1 kmh 29.74 in1007.1 mb - 0.00 in0.0 mm 0.00 in0.0 mm
05:10 PM 60.3°F15.7°C 37.7°F3.2°C 43% 8.3 mph SW13.4 kmh SW 11.0 mph17.7 kmh 29.74 in1007.1 mb - 0.00 in0.0 mm 0.00 in0.0 mm
05:20 PM 59.7°F15.4°C 37.7°F3.2°C 44% 5.2 mph SW8.4 kmh SW 13.0 mph20.9 kmh 29.74 in1007.1 mb - 0.00 in0.0 mm 0.00 in0.0 mm
05:30 PM 59.1°F15.1°C 37.8°F3.2°C 45% 4.7 mph S7.6 kmh S 6.0 mph9.7 kmh 29.73 in1006.8 mb - 0.00 in0.0 mm 0.00 in0.0 mm
05:40 PM 58.7°F14.8°C 38.0°F3.3°C 46% 6.2 mph S10.0 kmh S 9.0 mph14.5 kmh 29.73 in1006.8 mb - 0.00 in0.0 mm 0.00 in0.0 mm
05:50 PM 58.4°F14.7°C 38.2°F3.4°C 47% 4.4 mph S7.1 kmh S 7.0 mph11.3 kmh 29.73 in1006.8 mb - 0.00 in0.0 mm 0.00 in0.0 mm
06:00 PM 58.0°F14.4°C 37.9°F3.3°C 47% 3.9 mph SSW6.3 kmh SSW 8.0 mph12.9 kmh 29.73 in1006.8 mb - 0.00 in0.0 mm 0.00 in0.0 mm
06:10 PM 57.7°F14.3°C 37.6°F3.1°C 47% 4.8 mph S7.7 kmh S 6.0 mph9.7 kmh 29.73 in1006.8 mb - 0.00 in0.0 mm 0.00 in0.0 mm
06:20 PM 57.5°F14.2°C 37.4°F3.0°C 47% 2.7 mph SSW4.3 kmh SSW 6.0 mph9.7 kmh 29.74 in1007.1 mb - 0.00 in0.0 mm 0.00 in0.0 mm
06:30 PM 57.2°F14.0°C 37.7°F3.2°C 48% 2.7 mph S4.3 kmh S 5.0 mph8.0 kmh 29.73 in1006.8 mb - 0.00 in0.0 mm 0.00 in0.0 mm
06:40 PM 56.8°F13.8°C 37.8°F3.2°C 49% 3.8 mph S6.1 kmh S 6.0 mph9.7 kmh 29.73 in1006.8 mb - 0.00 in0.0 mm 0.00 in0.0 mm
06:50 PM 56.5°F13.6°C 37.6°F3.1°C 49% 2.7 mph S4.3 kmh S 6.0 mph9.7 kmh 29.72 in1006.4 mb - 0.00 in0.0 mm 0.00 in0.0 mm
07:00 PM 56.1°F13.4°C 37.7°F3.2°C 50% 3.4 mph SSW5.5 kmh SSW 7.0 mph11.3 kmh 29.73 in1006.8 mb - 0.00 in0.0 mm 0.00 in0.0 mm
07:10 PM 55.9°F13.3°C 38.0°F3.3°C 51% 2.5 mph SW4.0 kmh SW 4.0 mph6.4 kmh 29.73 in1006.8 mb - 0.00 in0.0 mm 0.00 in0.0 mm
07:20 PM 55.6°F13.1°C 38.2°F3.4°C 52% 2.0 mph SW3.2 kmh SW 3.0 mph4.8 kmh 29.73 in1006.8 mb - 0.00 in0.0 mm 0.00 in0.0 mm
07:30 PM 55.3°F12.9°C 38.4°F3.6°C 53% 3.9 mph SSW6.3 kmh SSW 8.0 mph12.9 kmh 29.73 in1006.8 mb - 0.00 in0.0 mm 0.00 in0.0 mm
07:40 PM 55.3°F12.9°C 38.4°F3.6°C 53% 6.7 mph S10.8 kmh S 12.0 mph19.3 kmh 29.73 in1006.8 mb - 0.00 in0.0 mm 0.00 in0.0 mm
07:50 PM 55.6°F13.1°C 38.7°F3.7°C 53% 7.5 mph SSW12.1 kmh SSW 9.0 mph14.5 kmh 29.73 in1006.8 mb - 0.00 in0.0 mm 0.00 in0.0 mm
08:00 PM 55.6°F13.1°C 38.8°F3.8°C 53% 5.0 mph SSW8.0 kmh SSW 8.0 mph12.9 kmh 29.73 in1006.8 mb - 0.00 in0.0 mm 0.00 in0.0 mm
08:10 PM 55.7°F13.2°C 39.3°F4.1°C 54% 3.6 mph S5.8 kmh S 5.0 mph8.0 kmh 29.73 in1006.8 mb - 0.00 in0.0 mm 0.00 in0.0 mm
08:20 PM 55.4°F13.0°C 39.0°F3.9°C 54% 1.8 mph W2.9 kmh W 3.0 mph4.8 kmh 29.73 in1006.8 mb - 0.00 in0.0 mm 0.00 in0.0 mm
08:30 PM 55.1°F12.8°C 39.2°F4.0°C 55% 4.3 mph SW6.9 kmh SW 6.0 mph9.7 kmh 29.73 in1006.8 mb - 0.00 in0.0 mm 0.00 in0.0 mm
08:40 PM 55.3°F12.9°C 39.8°F4.3°C 56% 2.5 mph SW4.0 kmh SW 4.0 mph6.4 kmh 29.72 in1006.4 mb - 0.00 in0.0 mm 0.00 in0.0 mm
08:50 PM 55.3°F12.9°C 39.4°F4.1°C 55% 3.4 mph WSW5.5 kmh WSW 9.0 mph14.5 kmh 29.72 in1006.4 mb - 0.00 in0.0 mm 0.00 in0.0 mm
09:00 PM 55.5°F13.1°C 39.6°F4.2°C 55% 4.8 mph SW7.7 kmh SW 9.0 mph14.5 kmh 29.71 in1006.1 mb - 0.00 in0.0 mm 0.00 in0.0 mm
09:10 PM 55.5°F13.1°C 39.1°F3.9°C 54% 3.7 mph SSW6.0 kmh SSW 5.0 mph8.0 kmh 29.70 in1005.8 mb - 0.00 in0.0 mm 0.00 in0.0 mm
09:20 PM 55.5°F13.1°C 39.1°F3.9°C 54% 3.8 mph S6.1 kmh S 6.0 mph9.7 kmh 29.69 in1005.4 mb - 0.00 in0.0 mm 0.00 in0.0 mm
09:30 PM 55.4°F13.0°C 39.5°F4.2°C 55% 4.7 mph S7.6 kmh S 8.0 mph12.9 kmh 29.68 in1005.1 mb - 0.00 in0.0 mm 0.00 in0.0 mm
09:40 PM 55.6°F13.1°C 39.2°F4.0°C 54% 6.2 mph SSW10.0 kmh SSW 11.0 mph17.7 kmh 29.67 in1004.7 mb - 0.00 in0.0 mm 0.00 in0.0 mm
09:50 PM 55.9°F13.3°C 39.5°F4.2°C 54% 6.3 mph S10.1 kmh S 10.0 mph16.1 kmh 29.66 in1004.4 mb - 0.00 in0.0 mm 0.00 in0.0 mm
10:00 PM 55.9°F13.3°C 39.0°F3.9°C 53% 5.9 mph WSW9.5 kmh WSW 9.0 mph14.5 kmh 29.66 in1004.4 mb - 0.00 in0.0 mm 0.00 in0.0 mm
10:10 PM 55.5°F13.1°C 39.1°F3.9°C 54% 3.6 mph SW5.8 kmh SW 5.0 mph8.0 kmh 29.66 in1004.4 mb - 0.00 in0.0 mm 0.00 in0.0 mm
10:20 PM 54.7°F12.6°C 39.3°F4.1°C 56% 6.0 mph SSW9.7 kmh SSW 11.0 mph17.7 kmh 29.67 in1004.7 mb - 0.00 in0.0 mm 0.00 in0.0 mm
10:30 PM 54.5°F12.5°C 39.6°F4.2°C 57% 7.4 mph SW11.9 kmh SW 10.0 mph16.1 kmh 29.66 in1004.4 mb - 0.00 in0.0 mm 0.00 in0.0 mm
10:40 PM 54.3°F12.4°C 39.4°F4.1°C 57% 6.3 mph SSW10.1 kmh SSW 10.0 mph16.1 kmh 29.65 in1004.1 mb - 0.00 in0.0 mm 0.00 in0.0 mm
10:50 PM 54.0°F12.2°C 39.5°F4.2°C 58% 4.6 mph SW7.4 kmh SW 7.0 mph11.3 kmh 29.66 in1004.4 mb - 0.00 in0.0 mm 0.00 in0.0 mm
11:00 PM 53.7°F12.1°C 39.2°F4.0°C 58% 3.5 mph SW5.6 kmh SW 7.0 mph11.3 kmh 29.66 in1004.4 mb - 0.00 in0.0 mm 0.00 in0.0 mm
11:10 PM 53.2°F11.8°C 39.2°F4.0°C 59% 4.9 mph SSW7.9 kmh SSW 7.0 mph11.3 kmh 29.65 in1004.1 mb - 0.00 in0.0 mm 0.00 in0.0 mm
11:20 PM 53.1°F11.7°C 39.1°F3.9°C 59% 4.5 mph SW7.2 kmh SW 7.0 mph11.3 kmh 29.64 in1003.7 mb - 0.00 in0.0 mm 0.00 in0.0 mm
11:30 PM 53.1°F11.7°C 39.2°F4.0°C 59% 4.4 mph SSW7.1 kmh SSW 7.0 mph11.3 kmh 29.64 in1003.7 mb - 0.00 in0.0 mm 0.00 in0.0 mm
11:40 PM 52.9°F11.6°C 39.0°F3.9°C 59% 3.7 mph SSW6.0 kmh SSW 6.0 mph9.7 kmh 29.64 in1003.7 mb - 0.00 in0.0 mm 0.00 in0.0 mm
11:50 PM 52.6°F11.4°C 39.1°F3.9°C 60% 1.6 mph SW2.6 kmh SW 4.0 mph6.4 kmh 29.64 in1003.7 mb - 0.00 in0.0 mm 0.00 in0.0 mm